createdAt,value
2023-04-24T00:04:41.699Z,24.3
2023-04-24T00:10:33.185Z,23.8
2023-04-24T00:16:25.099Z,23.9
2023-04-24T00:22:16.273Z,23.9
2023-04-24T00:28:07.412Z,23.7
2023-04-24T00:33:58.729Z,23.9
2023-04-24T00:39:50.257Z,26.5
2023-04-24T00:45:41.192Z,23.9
2023-04-24T00:51:31.953Z,24
2023-04-24T00:57:08.153Z,24
2023-04-24T01:03:00.198Z,23.8
2023-04-24T01:08:52.350Z,23.6
2023-04-24T01:14:44.354Z,24.4
2023-04-24T01:20:36.630Z,26
2023-04-24T01:26:28.011Z,23.9
2023-04-24T01:32:20.103Z,24
2023-04-24T01:37:56.261Z,23.9
2023-04-24T01:43:47.602Z,23.8
2023-04-24T01:49:39.734Z,23.5
2023-04-24T01:55:31.185Z,25
2023-04-24T02:01:23.288Z,24.7
2023-04-24T02:07:16.602Z,23.9
2023-04-24T02:13:07.824Z,24.1
2023-04-24T02:18:59.394Z,24
2023-04-24T02:24:35.240Z,23.8
2023-04-24T02:30:26.244Z,23.5
2023-04-24T02:36:17.702Z,25.8
2023-04-24T02:42:09.411Z,24.2
2023-04-24T02:48:00.569Z,24
2023-04-24T02:53:52.473Z,24.1
2023-04-24T02:59:43.808Z,23.9
2023-04-24T03:05:37.276Z,23.7
2023-04-24T03:11:29.164Z,23.8
2023-04-24T03:17:21.194Z,26.4
2023-04-24T03:23:15.903Z,24.1
2023-04-24T03:29:06.996Z,24.1
2023-04-24T03:34:59.820Z,24.1
2023-04-24T03:40:35.916Z,23.9
2023-04-24T03:46:29.681Z,23.6
2023-04-24T03:52:23.150Z,24.1
2023-04-24T03:58:14.236Z,26.7
2023-04-24T04:04:07.443Z,24
2023-04-24T04:09:59.798Z,24.1
2023-04-24T04:15:50.924Z,24.1
2023-04-24T04:21:42.573Z,23.9
2023-04-24T04:27:34.127Z,23.6
2023-04-24T04:33:25.727Z,24.4
2023-04-24T04:39:17.616Z,26.8
2023-04-24T04:45:09.785Z,24
2023-04-24T04:51:01.433Z,24.1
2023-04-24T04:56:53.604Z,24.1
2023-04-24T05:02:33.872Z,23.8
2023-04-24T05:08:47.537Z,23.6
2023-04-24T05:14:51.157Z,23.2
2023-04-24T05:20:43.724Z,22.9
2023-04-24T05:26:18.968Z,22.6
2023-04-24T05:31:55.313Z,22.3
2023-04-24T05:37:47.450Z,21.9
2023-04-24T05:43:38.251Z,21.6
2023-04-24T05:49:14.547Z,21.3
2023-04-24T05:55:06.265Z,21.1
2023-04-24T06:00:57.461Z,20.8
2023-04-24T06:06:52.227Z,20.5
2023-04-24T06:12:14.275Z,20.3
2023-04-24T06:18:06.565Z,20.1
2023-04-24T06:23:57.769Z,19.9
2023-04-24T06:29:34.062Z,19.7
2023-04-24T06:35:33.982Z,19.5
2023-04-24T06:41:26.085Z,19.3
2023-04-24T06:47:02.278Z,19.2
2023-04-24T06:52:39.614Z,19.1
2023-04-24T06:58:30.809Z,18.9
2023-04-24T07:04:26.418Z,18.8
2023-04-24T07:10:18.340Z,18.6
2023-04-24T07:15:55.014Z,18.5
2023-04-24T07:21:32.088Z,18.4
2023-04-24T07:27:09.951Z,18.3
2023-04-24T07:33:02.524Z,18.2
2023-04-24T07:38:54.499Z,18.1
2023-04-24T07:44:46.232Z,18
2023-04-24T07:50:52.881Z,17.9
2023-04-24T07:56:47.318Z,17.8
2023-04-24T08:02:38.862Z,17.8
2023-04-24T08:08:34.709Z,17.7
2023-04-24T08:14:13.359Z,17.6
2023-04-24T08:20:05.714Z,17.6
2023-04-24T08:25:57.190Z,17.4
2023-04-24T08:31:35.744Z,17.4
2023-04-24T08:37:21.810Z,17.4
2023-04-24T08:43:13.138Z,17.3
2023-04-24T08:49:21.760Z,17.3
2023-04-24T08:55:13.009Z,17.3
2023-04-24T09:00:49.315Z,17.2
2023-04-24T09:06:44.419Z,17.1
2023-04-24T09:12:35.910Z,17.1
2023-04-24T09:18:27.680Z,17.1
2023-04-24T09:24:03.814Z,17.1
2023-04-24T09:41:08.980Z,16.9
2023-04-24T09:47:10.405Z,16.9
2023-04-24T09:53:05.401Z,16.9
2023-04-24T09:58:57.838Z,16.9
2023-04-24T10:04:51.082Z,16.9
2023-04-24T10:10:43.578Z,16.8
2023-04-24T10:16:36.078Z,16.8
2023-04-24T10:22:28.155Z,16.8
2023-04-24T10:28:19.161Z,16.8
2023-04-24T10:34:11.752Z,16.8
2023-04-24T10:40:03.458Z,16.8
2023-04-24T10:45:55.549Z,16.8
2023-04-24T10:51:47.601Z,16.7
2023-04-24T10:57:39.188Z,16.7
2023-04-24T11:03:32.354Z,16.8
2023-04-24T11:09:11.502Z,16.7
2023-04-24T11:14:48.101Z,16.7
